Time;durP1;ratioP1;P1;durP2;ratioP2;P2;SDS_P1;SDS_P2;PMS_P1;PMS_P2;Temp;Humidity;BMP_temperature;BMP_pressure;BME280_temperature;BME280_humidity;BME280_pressure;Samples;Min_cycle;Max_cycle;Signal;HPM_P1;HPM_P2
2020/12/05 00:00:36;;;;;;;0.95;0.77;;;4.20;82.80;;;;;;5034631;28;20117;-80
2020/12/05 00:03:02;;;;;;;0.70;0.70;;;4.20;82.70;;;;;;5028835;28;20049;-81
2020/12/05 00:05:27;;;;;;;0.85;0.85;;;4.30;82.60;;;;;;5041254;28;20049;-80
2020/12/05 00:07:53;;;;;;;1.00;0.80;;;4.30;82.60;;;;;;5014728;28;20053;-80
2020/12/05 00:10:18;;;;;;;0.73;0.60;;;4.30;82.50;;;;;;5030951;28;20025;-81
2020/12/05 00:12:44;;;;;;;0.70;0.70;;;4.30;82.50;;;;;;5033956;28;20037;-80
2020/12/05 00:15:09;;;;;;;0.90;0.90;;;4.30;82.50;;;;;;5035392;28;20048;-80
2020/12/05 00:17:35;;;;;;;0.70;0.70;;;4.30;82.60;;;;;;5036295;28;20045;-81
2020/12/05 00:20:00;;;;;;;0.95;0.73;;;4.30;82.50;;;;;;5035241;28;20037;-80
2020/12/05 00:22:27;;;;;;;0.98;0.85;;;4.30;82.50;;;;;;5035859;28;20204;-80
2020/12/05 00:24:53;;;;;;;0.60;0.60;;;4.30;82.40;;;;;;5035619;28;20084;-81
2020/12/05 00:27:20;;;;;;;0.77;0.77;;;4.30;82.50;;;;;;5036123;28;20066;-80
2020/12/05 00:29:50;;;;;;;1.10;0.85;;;4.30;82.50;;;;;;5020788;28;20111;-80
2020/12/05 00:32:15;;;;;;;;;;;4.30;82.60;;;;;;5036952;28;20034;-80
2020/12/05 00:34:42;;;;;;;0.55;0.55;;;4.30;82.50;;;;;;5024518;28;20425;-81
2020/12/05 00:37:07;;;;;;;0.65;0.63;;;4.20;82.70;;;;;;5038080;28;20045;-80
2020/12/05 00:39:33;;;;;;;0.50;0.50;;;4.20;82.70;;;;;;5035924;28;20039;-80
2020/12/05 00:41:58;;;;;;;0.50;0.50;;;4.20;82.70;;;;;;5035829;28;20356;-80
2020/12/05 00:44:24;;;;;;;1.02;0.90;;;4.20;82.70;;;;;;5020396;28;20025;-80
2020/12/05 00:46:50;;;;;;;0.60;0.60;;;4.20;82.70;;;;;;5035443;28;20183;-80
2020/12/05 00:49:15;;;;;;;0.75;0.75;;;4.20;82.80;;;;;;5042489;28;20375;-80
2020/12/05 00:51:41;;;;;;;0.73;0.70;;;4.20;82.80;;;;;;5041131;28;20037;-80
2020/12/05 00:54:07;;;;;;;0.63;0.60;;;4.10;82.70;;;;;;5031882;28;20455;-80
2020/12/05 00:56:35;;;;;;;0.50;0.50;;;4.10;82.80;;;;;;5035664;28;20046;-80
2020/12/05 00:59:01;;;;;;;0.70;0.70;;;4.10;83.50;;;;;;5019304;28;20037;-80
2020/12/05 01:01:27;;;;;;;0.85;0.85;;;4.10;82.90;;;;;;5036784;28;20049;-80
2020/12/05 01:03:52;;;;;;;0.80;0.80;;;4.10;82.80;;;;;;5002077;28;20046;-80
2020/12/05 01:06:18;;;;;;;0.52;0.52;;;4.10;82.90;;;;;;5016305;28;20040;-80
2020/12/05 01:08:45;;;;;;;0.85;0.85;;;4.10;83.00;;;;;;5001924;28;20034;-79
2020/12/05 01:11:12;;;;;;;0.80;0.80;;;4.00;83.00;;;;;;5010343;28;20056;-79
2020/12/05 01:13:38;;;;;;;0.80;0.80;;;4.00;83.10;;;;;;5016120;28;20056;-79
2020/12/05 01:16:03;;;;;;;0.98;0.98;;;4.00;83.10;;;;;;5015723;28;20057;-80
2020/12/05 01:18:29;;;;;;;0.70;0.70;;;3.90;83.10;;;;;;5015459;28;20491;-80
2020/12/05 01:20:54;;;;;;;0.70;0.70;;;3.90;83.20;;;;;;5022904;28;20026;-79
2020/12/05 01:23:20;;;;;;;0.80;0.80;;;3.90;83.30;;;;;;5019154;28;20490;-80
2020/12/05 01:25:45;;;;;;;1.13;1.02;;;3.90;83.30;;;;;;5013823;28;20014;-80
2020/12/05 01:28:11;;;;;;;1.10;1.00;;;3.80;83.40;;;;;;4998151;28;20038;-79
2020/12/05 01:30:37;;;;;;;1.17;1.08;;;3.80;83.50;;;;;;5013757;28;20128;-79
2020/12/05 01:33:02;;;;;;;0.60;0.60;;;3.80;83.50;;;;;;5015000;28;20042;-78
2020/12/05 01:35:28;;;;;;;1.20;1.08;;;3.80;83.50;;;;;;5001106;28;20037;-79
2020/12/05 01:37:53;;;;;;;0.82;0.82;;;3.80;83.60;;;;;;5015189;28;20121;-79
2020/12/05 01:40:19;;;;;;;1.00;0.90;;;3.80;83.60;;;;;;5014790;28;20483;-79
2020/12/05 01:42:45;;;;;;;1.13;1.00;;;3.80;83.50;;;;;;4996729;28;20060;-80
2020/12/05 01:45:10;;;;;;;0.70;0.70;;;3.80;83.50;;;;;;5015981;28;20037;-80
2020/12/05 01:47:38;;;;;;;0.90;0.90;;;3.80;83.50;;;;;;4997004;28;20038;-79
2020/12/05 01:50:04;;;;;;;0.60;0.60;;;3.70;83.50;;;;;;4996879;28;20467;-79
2020/12/05 01:52:30;;;;;;;0.65;0.65;;;3.70;83.50;;;;;;4996576;28;20038;-79
2020/12/05 01:54:56;;;;;;;0.80;0.80;;;3.70;83.60;;;;;;5014830;28;20108;-79
2020/12/05 01:57:21;;;;;;;0.70;0.70;;;3.60;83.60;;;;;;4996670;28;20499;-79
2020/12/05 01:59:47;;;;;;;0.77;0.77;;;3.70;83.60;;;;;;4994834;28;20041;-79
2020/12/05 02:02:13;;;;;;;2.10;1.00;;;3.70;83.60;;;;;;5001387;28;20136;-79
2020/12/05 02:04:58;;;;;;;1.00;0.95;;;3.60;83.50;;;;;;5008200;28;20383;-79
2020/12/05 02:07:51;;;;;;;1.30;1.17;;;3.70;83.50;;;;;;5000261;28;20127;-79
2020/12/05 02:10:24;;;;;;;0.70;0.70;;;3.70;83.40;;;;;;4995468;28;20380;-80
2020/12/05 02:13:26;;;;;;;1.08;0.88;;;3.70;84.00;;;;;;4996030;28;20053;-79
2020/12/05 02:15:52;;;;;;;0.70;0.70;;;3.70;83.30;;;;;;4916146;29;20031;-79
2020/12/05 02:18:19;;;;;;;0.93;0.88;;;3.70;83.30;;;;;;4940073;29;20043;-79
2020/12/05 02:20:46;;;;;;;0.70;0.70;;;3.80;83.30;;;;;;4924976;29;20115;-79
2020/12/05 02:23:16;;;;;;;0.98;0.88;;;3.80;83.30;;;;;;4917573;29;20067;-79
2020/12/05 02:25:50;;;;;;;0.90;0.90;;;3.80;83.20;;;;;;4933181;29;20134;-79
2020/12/05 02:28:18;;;;;;;0.98;0.98;;;3.90;83.10;;;;;;4934763;29;20226;-79
2020/12/05 02:30:44;;;;;;;0.70;0.70;;;3.90;83.00;;;;;;4932663;29;20103;-79
2020/12/05 02:33:10;;;;;;;0.70;0.70;;;4.00;82.90;;;;;;4934761;29;20492;-79
2020/12/05 02:35:36;;;;;;;0.70;0.70;;;4.00;83.40;;;;;;4934027;29;20051;-79
2020/12/05 02:38:13;;;;;;;0.65;0.65;;;4.10;82.80;;;;;;4936754;29;20059;-79
2020/12/05 02:40:39;;;;;;;0.90;0.90;;;4.10;82.80;;;;;;4917750;29;20043;-79
2020/12/05 02:43:05;;;;;;;0.93;0.90;;;4.20;82.80;;;;;;4926120;29;20043;-79
2020/12/05 02:45:32;;;;;;;0.82;0.82;;;4.20;82.70;;;;;;4950302;29;20126;-79
2020/12/05 02:47:57;;;;;;;1.15;0.95;;;4.20;82.80;;;;;;4918059;29;20537;-78
2020/12/05 02:50:24;;;;;;;0.90;0.90;;;4.20;82.70;;;;;;4917108;29;20127;-78
2020/12/05 02:52:50;;;;;;;1.02;0.93;;;4.20;82.80;;;;;;4997002;28;20061;-79
2020/12/05 02:55:15;;;;;;;1.20;1.10;;;4.20;82.90;;;;;;5023641;28;20065;-79
2020/12/05 02:57:41;;;;;;;0.98;0.98;;;4.20;83.00;;;;;;4997214;28;20487;-79
2020/12/05 03:00:07;;;;;;;1.65;1.10;;;4.20;83.10;;;;;;5005195;28;20127;-80
2020/12/05 03:02:34;;;;;;;0.93;0.93;;;4.20;83.10;;;;;;5021319;28;20581;-79
2020/12/05 03:04:59;;;;;;;1.20;1.05;;;4.20;83.10;;;;;;5033207;28;20490;-79
2020/12/05 03:07:25;;;;;;;1.13;1.00;;;4.20;83.00;;;;;;5035130;28;20033;-79
2020/12/05 03:09:50;;;;;;;1.00;0.90;;;4.20;83.00;;;;;;5032959;28;20386;-79
2020/12/05 03:12:16;;;;;;;0.65;0.65;;;4.20;83.00;;;;;;5034315;28;20048;-79
2020/12/05 03:14:42;;;;;;;1.45;0.80;;;4.20;83.00;;;;;;5031502;28;20033;-79
2020/12/05 03:17:07;;;;;;;0.80;0.80;;;4.20;83.00;;;;;;5024396;28;20075;-79
2020/12/05 03:19:33;;;;;;;1.65;1.10;;;4.20;83.00;;;;;;5033739;28;20040;-79
2020/12/05 03:21:58;;;;;;;0.98;0.90;;;4.20;83.10;;;;;;5033925;28;20378;-79
2020/12/05 03:24:24;;;;;;;1.02;1.00;;;4.20;83.10;;;;;;5034575;28;20033;-79
2020/12/05 03:26:50;;;;;;;1.05;1.05;;;4.20;83.10;;;;;;5033329;28;20565;-79
2020/12/05 03:29:15;;;;;;;1.02;1.02;;;4.20;83.10;;;;;;5014595;28;20459;-79
2020/12/05 03:34:10;;;;;;;0.65;0.63;;;4.30;83.30;;;;;;5033520;28;20457;-79
2020/12/05 03:36:36;;;;;;;0.80;0.80;;;4.30;83.30;;;;;;5032246;28;20482;-78
2020/12/05 03:39:03;;;;;;;0.90;0.90;;;4.20;83.30;;;;;;5014465;28;20038;-79
2020/12/05 03:41:28;;;;;;;1.08;1.05;;;4.20;83.40;;;;;;5014993;28;20041;-79
2020/12/05 03:43:54;;;;;;;0.80;0.80;;;4.20;83.40;;;;;;5048042;28;20469;-79
2020/12/05 03:46:19;;;;;;;1.30;1.20;;;4.10;83.50;;;;;;5041190;28;20124;-79
2020/12/05 03:48:45;;;;;;;0.73;0.73;;;4.10;83.50;;;;;;5032640;28;20032;-79
2020/12/05 03:51:11;;;;;;;0.88;0.77;;;4.10;83.60;;;;;;5014287;28;20038;-79
2020/12/05 03:53:36;;;;;;;1.38;1.02;;;4.10;83.60;;;;;;5015642;28;20037;-80
2020/12/05 03:56:03;;;;;;;1.08;0.90;;;4.10;83.60;;;;;;5015169;28;20037;-79
2020/12/05 03:58:28;;;;;;;0.80;0.70;;;4.10;83.60;;;;;;5015142;28;20066;-79
2020/12/05 04:00:54;;;;;;;1.42;0.90;;;4.00;84.20;;;;;;5030619;28;20470;-79
2020/12/05 04:03:19;;;;;;;0.70;0.70;;;4.00;83.60;;;;;;5032840;28;20140;-79
2020/12/05 04:05:45;;;;;;;0.73;0.70;;;4.00;83.70;;;;;;5032869;28;20029;-79
2020/12/05 04:08:11;;;;;;;1.17;1.13;;;3.90;84.30;;;;;;5014281;28;20427;-79
2020/12/05 04:10:36;;;;;;;1.33;0.80;;;3.90;83.80;;;;;;5032746;28;20428;-79
2020/12/05 04:13:02;;;;;;;0.85;0.85;;;3.90;83.90;;;;;;5036029;28;20049;-79
2020/12/05 04:15:28;;;;;;;0.80;0.80;;;3.90;84.00;;;;;;5030359;28;20467;-79
2020/12/05 04:17:54;;;;;;;1.13;0.93;;;3.80;84.00;;;;;;5045553;28;20057;-79
2020/12/05 04:20:20;;;;;;;1.17;1.08;;;3.80;84.00;;;;;;5038540;28;20037;-79
2020/12/05 04:22:45;;;;;;;1.35;1.00;;;3.70;84.00;;;;;;5013952;28;20033;-80
2020/12/05 04:25:11;;;;;;;1.10;1.00;;;3.70;84.10;;;;;;5031735;28;20037;-79
2020/12/05 04:27:40;;;;;;;0.75;0.75;;;3.70;84.20;;;;;;5029696;28;20061;-79
2020/12/05 04:30:05;;;;;;;1.02;0.93;;;3.70;84.10;;;;;;5012523;28;20034;-79
2020/12/05 04:32:31;;;;;;;1.05;1.02;;;3.70;84.10;;;;;;5014426;28;20049;-79
2020/12/05 04:34:57;;;;;;;0.90;0.90;;;3.70;84.00;;;;;;5016119;28;20133;-80
2020/12/05 04:37:23;;;;;;;0.90;0.90;;;3.70;84.00;;;;;;5021224;28;20136;-80
2020/12/05 04:39:49;;;;;;;0.52;0.52;;;3.80;84.00;;;;;;5034116;28;20569;-80
2020/12/05 04:42:16;;;;;;;0.73;0.73;;;3.80;84.00;;;;;;5033090;28;20132;-79
2020/12/05 04:44:41;;;;;;;0.95;0.85;;;3.70;83.90;;;;;;5022017;28;20033;-79
2020/12/05 04:47:09;;;;;;;0.82;0.80;;;3.80;84.00;;;;;;5014546;28;20037;-79
2020/12/05 04:49:36;;;;;;;0.80;0.80;;;3.70;83.90;;;;;;5031705;28;20566;-79
2020/12/05 04:52:30;;;;;;;0.90;0.90;;;3.70;83.90;;;;;;5045028;28;20417;-79
2020/12/05 04:54:56;;;;;;;0.75;0.75;;;3.70;83.90;;;;;;5012212;28;20132;-79
2020/12/05 04:57:26;;;;;;;0.60;0.60;;;3.70;84.00;;;;;;4994832;28;20042;-80
2020/12/05 04:59:54;;;;;;;1.17;0.90;;;3.70;84.00;;;;;;5030445;28;20057;-80
2020/12/05 05:02:26;;;;;;;1.00;0.90;;;3.70;84.00;;;;;;5035765;28;20049;-80
2020/12/05 05:04:51;;;;;;;1.10;1.00;;;3.70;84.00;;;;;;5037945;28;20478;-80
2020/12/05 05:07:17;;;;;;;0.70;0.70;;;3.70;84.00;;;;;;5027662;28;20136;-80
2020/12/05 05:10:00;;;;;;;1.10;0.95;;;3.60;83.90;;;;;;5018092;28;20041;-80
2020/12/05 05:12:32;;;;;;;0.82;0.77;;;3.60;84.10;;;;;;5038748;28;20033;-80
2020/12/05 05:14:58;;;;;;;0.93;0.77;;;3.50;84.10;;;;;;5034850;28;20037;-80
2020/12/05 05:17:23;;;;;;;0.80;0.80;;;3.50;84.20;;;;;;5035797;28;20041;-80
2020/12/05 05:19:51;;;;;;;0.80;0.80;;;3.50;84.20;;;;;;5035317;28;20026;-80
2020/12/05 05:22:22;;;;;;;0.98;0.70;;;3.50;84.20;;;;;;5036233;28;20037;-80
2020/12/05 05:25:05;;;;;;;0.82;0.82;;;3.50;84.30;;;;;;5015093;28;20033;-81
2020/12/05 05:27:31;;;;;;;0.80;0.80;;;3.40;84.20;;;;;;5035754;28;20144;-81
2020/12/05 05:30:08;;;;;;;0.95;0.93;;;3.40;84.30;;;;;;5016268;28;20449;-81
2020/12/05 05:32:43;;;;;;;1.33;1.02;;;3.40;84.40;;;;;;5014914;28;20042;-80
2020/12/05 05:35:14;;;;;;;0.95;0.95;;;3.30;84.30;;;;;;5039004;28;20032;-81
2020/12/05 05:37:41;;;;;;;0.65;0.63;;;3.30;84.30;;;;;;5040520;28;20037;-81
2020/12/05 05:40:09;;;;;;;0.80;0.80;;;3.30;84.30;;;;;;5016455;28;20168;-79
2020/12/05 05:42:39;;;;;;;0.98;0.93;;;3.40;84.30;;;;;;5038277;28;20044;-79
2020/12/05 05:45:22;;;;;;;0.90;0.90;;;3.40;84.10;;;;;;4996691;28;20037;-81
2020/12/05 05:47:52;;;;;;;0.90;0.90;;;3.50;84.10;;;;;;5035576;28;20048;-79
2020/12/05 05:50:29;;;;;;;;;;;3.50;84.00;;;;;;5016888;28;20044;-79
2020/12/05 05:53:00;;;;;;;0.80;0.80;;;3.40;83.90;;;;;;5034588;28;20400;-79
2020/12/05 05:55:48;;;;;;;1.25;1.00;;;3.40;84.00;;;;;;5033683;28;20041;-79
2020/12/05 05:58:15;;;;;;;1.38;1.17;;;3.50;84.10;;;;;;5021607;28;20045;-79
2020/12/05 06:00:45;;;;;;;1.27;1.17;;;3.40;84.10;;;;;;5032322;28;20049;-79
2020/12/05 06:03:24;;;;;;;1.35;1.25;;;3.40;84.20;;;;;;5016337;28;20049;-79
2020/12/05 06:05:51;;;;;;;;;;;3.40;84.40;;;;;;4998530;28;20479;-79
2020/12/05 06:08:23;;;;;;;0.90;0.90;;;3.30;84.30;;;;;;5035296;28;19909;-79
2020/12/05 06:11:22;;;;;;;1.40;1.20;;;3.30;84.50;;;;;;5016157;28;20034;-78
2020/12/05 06:13:49;;;;;;;1.17;1.17;;;3.40;84.40;;;;;;4944891;28;20035;-80
2020/12/05 06:16:18;;;;;;;1.27;1.17;;;3.30;84.40;;;;;;4955220;28;20183;-79
2020/12/05 06:18:45;;;;;;;1.57;1.30;;;3.40;84.50;;;;;;4953281;28;20071;-79
2020/12/05 06:21:10;;;;;;;1.67;1.30;;;3.30;84.40;;;;;;4961700;28;20136;-79
2020/12/05 06:23:50;;;;;;;0.95;0.95;;;3.40;84.50;;;;;;4960063;28;20478;-77
2020/12/05 06:26:27;;;;;;;0.82;0.82;;;3.40;84.50;;;;;;4936903;29;20066;-79
2020/12/05 06:28:54;;;;;;;1.10;1.00;;;3.30;84.50;;;;;;4951688;29;20566;-79
2020/12/05 06:31:39;;;;;;;1.00;1.00;;;3.30;84.60;;;;;;4937386;29;20142;-79
2020/12/05 06:34:04;;;;;;;1.08;1.05;;;3.30;84.70;;;;;;4937439;29;20031;-79
2020/12/05 06:36:30;;;;;;;1.50;1.10;;;3.30;84.70;;;;;;4938735;28;20130;-80
2020/12/05 06:39:10;;;;;;;1.10;1.10;;;3.20;84.50;;;;;;4938226;29;20077;-84
2020/12/05 06:41:38;;;;;;;0.93;0.90;;;3.30;84.70;;;;;;4938770;29;20039;-79
2020/12/05 06:44:33;;;;;;;1.10;1.00;;;3.20;84.70;;;;;;4966569;28;20059;-80
2020/12/05 06:47:01;;;;;;;1.40;1.00;;;3.30;84.70;;;;;;4971110;28;20045;-80
2020/12/05 06:49:38;;;;;;;1.45;1.23;;;3.20;84.70;;;;;;4997461;28;20041;-79
2020/12/05 06:52:28;;;;;;;1.52;1.17;;;3.20;84.70;;;;;;5020960;28;20083;-79
2020/12/05 06:55:16;;;;;;;1.50;1.40;;;3.20;84.70;;;;;;5044561;28;20524;-80
2020/12/05 06:57:43;;;;;;;1.10;1.00;;;3.20;84.70;;;;;;5035718;28;20049;-80
2020/12/05 07:00:25;;;;;;;0.98;0.90;;;3.20;84.70;;;;;;5039818;28;20045;-80
2020/12/05 07:03:03;;;;;;;1.02;0.90;;;3.30;84.70;;;;;;5040868;28;20125;-79
2020/12/05 07:05:39;;;;;;;1.48;1.35;;;3.30;84.60;;;;;;5016710;28;20139;-81
2020/12/05 07:08:27;;;;;;;1.02;1.00;;;3.40;84.70;;;;;;5040474;28;20048;-79
2020/12/05 07:10:56;;;;;;;1.00;1.00;;;3.30;85.10;;;;;;5042550;28;20044;-80
2020/12/05 07:13:49;;;;;;;1.30;1.20;;;3.40;84.50;;;;;;5037719;28;20037;-79
2020/12/05 07:16:21;;;;;;;1.25;1.15;;;3.40;84.50;;;;;;4966073;28;20088;-80
2020/12/05 07:18:53;;;;;;;1.17;1.08;;;3.40;84.60;;;;;;4957934;28;20353;-82
2020/12/05 07:21:20;;;;;;;1.08;0.98;;;3.40;84.70;;;;;;4961606;29;20043;-81
2020/12/05 07:23:50;;;;;;;0.98;0.90;;;3.40;84.50;;;;;;4945651;29;20039;-86
2020/12/05 07:26:16;;;;;;;1.73;1.35;;;3.50;84.50;;;;;;4944321;29;20131;-81
2020/12/05 07:28:47;;;;;;;1.05;0.90;;;3.50;84.40;;;;;;4957576;29;20036;-81
2020/12/05 07:31:17;;;;;;;1.40;1.10;;;3.60;84.50;;;;;;4954552;28;20043;-80
2020/12/05 07:33:57;;;;;;;0.93;0.93;;;3.60;84.40;;;;;;4921818;29;20094;-80
2020/12/05 07:36:41;;;;;;;2.20;1.48;;;3.60;84.40;;;;;;4940670;29;20524;-81
2020/12/05 07:39:19;;;;;;;0.90;0.90;;;3.70;84.40;;;;;;4964568;28;20047;-83
2020/12/05 07:41:57;;;;;;;0.90;0.90;;;3.70;84.40;;;;;;4962256;29;20032;-86
2020/12/05 07:44:22;;;;;;;0.75;0.75;;;3.70;84.30;;;;;;4960918;28;20043;-81
2020/12/05 07:46:51;;;;;;;1.15;1.10;;;3.80;84.30;;;;;;4956017;28;20039;-82
2020/12/05 07:49:48;;;;;;;1.35;1.25;;;3.80;84.20;;;;;;4943857;28;20166;-81
2020/12/05 07:52:16;;;;;;;0.90;0.90;;;3.80;84.10;;;;;;4929714;28;20057;-83
2020/12/05 07:54:55;;;;;;;1.05;1.05;;;3.90;84.10;;;;;;5019139;28;20034;-81
2020/12/05 07:57:30;;;;;;;0.80;0.80;;;3.90;84.00;;;;;;5035642;28;20045;-81
2020/12/05 08:00:18;;;;;;;0.77;0.77;;;3.90;84.00;;;;;;5016019;28;20033;-83
2020/12/05 08:03:05;;;;;;;1.27;0.95;;;4.00;84.00;;;;;;5018859;28;20038;-84
2020/12/05 08:05:57;;;;;;;0.80;0.80;;;4.00;84.00;;;;;;5019112;28;20095;-82
2020/12/05 08:08:28;;;;;;;0.73;0.73;;;4.00;83.90;;;;;;4955032;28;20361;-82
2020/12/05 08:11:03;;;;;;;0.93;0.73;;;4.10;84.00;;;;;;4953443;29;20092;-82
2020/12/05 08:13:35;;;;;;;0.90;0.90;;;4.10;84.00;;;;;;4960647;28;20032;-80
2020/12/05 08:16:08;;;;;;;0.95;0.80;;;4.20;84.10;;;;;;4940784;28;20056;-80
2020/12/05 08:18:40;;;;;;;1.17;1.00;;;4.20;84.00;;;;;;4944627;29;20063;-81
2020/12/05 08:21:06;;;;;;;1.00;0.80;;;4.20;84.10;;;;;;4938657;28;20141;-83
2020/12/05 08:23:56;;;;;;;0.88;0.88;;;4.20;84.00;;;;;;4948134;28;20035;-87
2020/12/05 08:26:24;;;;;;;1.10;1.00;;;4.30;84.00;;;;;;4951101;29;20055;-79
2020/12/05 08:28:55;;;;;;;0.70;0.70;;;4.30;84.50;;;;;;4916456;28;20059;-82
2020/12/05 08:31:55;;;;;;;0.60;0.60;;;4.40;83.90;;;;;;4939744;29;20035;-82
2020/12/05 08:35:16;;;;;;;1.20;1.10;;;4.50;83.90;;;;;;4940146;29;20047;-81
2020/12/05 08:38:15;;;;;;;0.98;0.88;;;4.60;83.80;;;;;;4923981;29;20501;-80
2020/12/05 08:41:00;;;;;;;0.75;0.70;;;4.60;83.70;;;;;;4939522;29;20043;-81
2020/12/05 08:43:35;;;;;;;0.75;0.75;;;4.70;83.70;;;;;;4955570;29;20046;-82
2020/12/05 08:46:01;;;;;;;0.90;0.90;;;4.70;83.60;;;;;;4960178;28;20062;-83
2020/12/05 08:48:30;;;;;;;0.90;0.90;;;4.70;83.60;;;;;;4988600;28;20126;-83
2020/12/05 08:51:05;;;;;;;0.73;0.73;;;4.80;84.30;;;;;;4999395;28;20035;-83
2020/12/05 08:53:32;;;;;;;0.98;0.98;;;4.80;83.80;;;;;;5001251;28;20026;-84
2020/12/05 08:55:59;;;;;;;1.00;1.00;;;4.80;83.80;;;;;;5003807;28;20034;-82
2020/12/05 08:58:25;;;;;;;1.13;1.00;;;4.80;83.90;;;;;;5014756;28;20034;-83
2020/12/05 09:00:51;;;;;;;0.82;0.82;;;4.80;84.00;;;;;;4984982;28;20046;-82
2020/12/05 09:03:18;;;;;;;0.77;0.77;;;4.90;84.10;;;;;;4995823;28;20137;-83
2020/12/05 09:05:45;;;;;;;0.65;0.65;;;4.90;84.10;;;;;;4979237;28;20184;-83
2020/12/05 09:08:19;;;;;;;0.68;0.68;;;4.90;84.10;;;;;;5003553;28;20083;-83
2020/12/05 09:10:45;;;;;;;0.70;0.70;;;5.00;84.10;;;;;;5025335;28;20120;-84
2020/12/05 09:13:11;;;;;;;1.10;1.10;;;5.00;84.20;;;;;;5013522;28;20302;-83
2020/12/05 09:15:56;;;;;;;0.82;0.82;;;5.10;84.20;;;;;;5057545;28;20029;-80
2020/12/05 09:18:25;;;;;;;0.80;0.80;;;5.10;84.10;;;;;;5026605;28;20104;-80
2020/12/05 09:20:58;;;;;;;1.80;1.10;;;5.20;84.10;;;;;;4989480;28;20102;-83
2020/12/05 09:23:31;;;;;;;0.88;0.88;;;5.20;84.10;;;;;;5048824;28;20029;-84
2020/12/05 09:26:07;;;;;;;1.25;1.20;;;5.30;84.60;;;;;;5032427;28;20120;-83
2020/12/05 09:28:35;;;;;;;0.90;0.90;;;5.40;84.00;;;;;;5038123;28;20112;-82
2020/12/05 09:31:07;;;;;;;0.82;0.80;;;5.40;83.90;;;;;;5026091;28;20026;-85
2020/12/05 09:33:35;;;;;;;0.80;0.80;;;5.50;84.00;;;;;;5019601;28;20164;-82
2020/12/05 09:36:08;;;;;;;1.40;1.17;;;5.50;83.80;;;;;;5036181;28;20105;-81
2020/12/05 09:38:56;;;;;;;0.70;0.70;;;5.60;83.80;;;;;;5040238;28;20064;-82
2020/12/05 09:42:07;;;;;;;0.95;0.95;;;5.70;83.80;;;;;;5001557;28;20120;-85
2020/12/05 09:44:33;;;;;;;1.05;1.05;;;5.70;83.70;;;;;;4997568;28;20034;-85
2020/12/05 09:47:03;;;;;;;1.13;0.90;;;5.70;83.60;;;;;;4994379;28;20042;-85
2020/12/05 09:49:30;;;;;;;0.75;0.75;;;5.80;83.70;;;;;;4994262;28;20027;-86
2020/12/05 09:51:56;;;;;;;0.80;0.80;;;5.80;83.60;;;;;;4980232;28;20030;-84
2020/12/05 09:54:21;;;;;;;1.45;1.00;;;5.90;83.70;;;;;;4983911;28;20093;-84
2020/12/05 09:56:50;;;;;;;1.30;1.20;;;5.90;83.70;;;;;;5005528;28;20046;-84
2020/12/05 09:59:16;;;;;;;0.82;0.82;;;6.00;83.60;;;;;;4981576;28;20030;-86
2020/12/05 10:01:42;;;;;;;1.15;1.00;;;6.00;83.60;;;;;;4995878;28;20042;-86
2020/12/05 10:04:07;;;;;;;0.90;0.90;;;6.10;83.60;;;;;;4982049;28;20046;-83
2020/12/05 10:06:33;;;;;;;1.02;0.90;;;6.10;83.60;;;;;;4994113;28;20030;-84
2020/12/05 10:08:58;;;;;;;1.25;1.00;;;6.20;83.60;;;;;;4977167;28;20456;-83
2020/12/05 10:11:24;;;;;;;0.80;0.80;;;6.30;83.60;;;;;;4977436;28;20042;-85
2020/12/05 10:13:49;;;;;;;0.82;0.82;;;6.30;83.40;;;;;;5032405;28;20205;-84
2020/12/05 10:16:15;;;;;;;0.63;0.63;;;6.30;83.40;;;;;;5019866;28;20034;-83
2020/12/05 10:18:40;;;;;;;0.85;0.77;;;6.40;83.40;;;;;;5016395;28;20386;-83
2020/12/05 10:21:07;;;;;;;0.80;0.80;;;6.40;83.40;;;;;;5034901;28;20571;-84
2020/12/05 10:23:33;;;;;;;0.55;0.55;;;6.40;83.40;;;;;;5035771;28;20057;-84
2020/12/05 10:25:58;;;;;;;0.90;0.90;;;6.50;83.40;;;;;;5034987;28;20033;-86
2020/12/05 10:28:27;;;;;;;0.63;0.63;;;6.50;83.40;;;;;;5046461;28;20067;-87
2020/12/05 10:30:53;;;;;;;0.70;0.65;;;6.50;83.30;;;;;;5018979;28;20193;-85
2020/12/05 10:33:18;;;;;;;1.17;1.08;;;6.50;83.30;;;;;;5037544;28;20039;-81
2020/12/05 10:35:44;;;;;;;1.15;1.02;;;6.50;83.30;;;;;;5029132;28;20030;-83
2020/12/05 10:38:09;;;;;;;0.73;0.73;;;6.60;83.30;;;;;;5034313;28;20103;-83
2020/12/05 10:40:38;;;;;;;1.38;1.05;;;6.60;83.30;;;;;;5034691;28;20028;-82
2020/12/05 10:43:05;;;;;;;0.60;0.60;;;6.60;83.30;;;;;;5033912;28;20048;-80
2020/12/05 10:45:31;;;;;;;0.70;0.70;;;6.60;83.30;;;;;;5032927;28;20164;-83
2020/12/05 10:47:57;;;;;;;0.95;0.90;;;6.70;83.30;;;;;;5016453;28;20080;-84
2020/12/05 10:50:22;;;;;;;0.60;0.60;;;6.70;83.10;;;;;;5016806;28;20494;-83
2020/12/05 10:52:51;;;;;;;2.58;1.08;;;6.70;83.10;;;;;;5017533;28;20066;-84
2020/12/05 10:55:16;;;;;;;0.63;0.63;;;6.70;83.10;;;;;;5031924;28;20044;-84
2020/12/05 10:57:42;;;;;;;0.88;0.85;;;6.70;83.10;;;;;;5015480;28;20041;-82
2020/12/05 11:00:07;;;;;;;1.27;0.77;;;6.70;83.20;;;;;;5031731;28;20030;-81
2020/12/05 11:02:33;;;;;;;0.57;0.57;;;6.70;83.30;;;;;;5048156;28;20120;-82
2020/12/05 11:04:58;;;;;;;0.75;0.75;;;6.70;83.20;;;;;;5044919;28;20064;-87
2020/12/05 11:07:24;;;;;;;0.88;0.70;;;6.70;83.10;;;;;;5016567;28;20450;-86
2020/12/05 11:09:50;;;;;;;0.50;0.50;;;6.80;83.10;;;;;;5017180;28;20030;-86
2020/12/05 11:12:15;;;;;;;0.70;0.70;;;6.80;83.70;;;;;;5034315;28;20118;-83
2020/12/05 11:14:41;;;;;;;0.70;0.70;;;6.80;83.00;;;;;;5021746;28;20048;-83
2020/12/05 11:17:07;;;;;;;0.65;0.65;;;6.90;82.80;;;;;;5043755;28;20065;-83
2020/12/05 11:19:32;;;;;;;0.50;0.50;;;6.90;82.70;;;;;;5020952;28;20034;-83
2020/12/05 11:21:58;;;;;;;0.98;0.80;;;7.00;82.70;;;;;;5038270;28;20056;-83
2020/12/05 11:24:24;;;;;;;1.20;1.10;;;7.10;82.70;;;;;;5033807;28;20033;-84
2020/12/05 11:26:49;;;;;;;0.80;0.80;;;7.10;83.20;;;;;;5034279;28;20159;-82
2020/12/05 11:29:17;;;;;;;0.52;0.52;;;7.20;82.40;;;;;;5014546;28;20427;-82
2020/12/05 11:31:43;;;;;;;0.95;0.95;;;7.30;82.20;;;;;;5034271;28;20037;-82
2020/12/05 11:34:08;;;;;;;1.98;1.00;;;7.40;82.00;;;;;;5015687;28;20030;-81
2020/12/05 11:36:34;;;;;;;0.80;0.80;;;7.40;81.80;;;;;;5016194;28;20088;-84
2020/12/05 11:38:59;;;;;;;0.75;0.50;;;7.60;81.80;;;;;;5033471;28;20463;-84
2020/12/05 11:41:25;;;;;;;0.60;0.60;;;7.60;81.40;;;;;;5015479;28;20033;-80
2020/12/05 11:43:50;;;;;;;0.77;0.77;;;7.60;81.30;;;;;;5013431;28;20091;-80
2020/12/05 11:46:16;;;;;;;1.42;1.33;;;7.60;81.40;;;;;;5015653;28;20033;-83
2020/12/05 11:48:42;;;;;;;1.40;1.30;;;7.60;81.50;;;;;;5033370;28;20044;-84
2020/12/05 11:51:07;;;;;;;0.60;0.60;;;7.60;81.50;;;;;;5033501;28;20140;-84
2020/12/05 11:53:33;;;;;;;0.95;0.90;;;7.80;81.40;;;;;;5015745;28;20034;-82
2020/12/05 11:55:58;;;;;;;0.85;0.85;;;7.80;81.10;;;;;;5015654;28;20033;-81
2020/12/05 11:58:24;;;;;;;0.70;0.70;;;7.80;81.20;;;;;;5033229;28;20486;-80
2020/12/05 12:00:50;;;;;;;1.08;0.82;;;7.80;81.30;;;;;;5032138;28;20040;-83
2020/12/05 12:03:15;;;;;;;0.90;0.90;;;7.80;81.30;;;;;;5016189;28;20060;-82
2020/12/05 12:05:41;;;;;;;1.30;1.20;;;7.90;81.30;;;;;;5034448;28;20043;-82
2020/12/05 12:08:07;;;;;;;1.17;1.08;;;7.80;81.20;;;;;;5012531;28;20057;-83
2020/12/05 12:10:33;;;;;;;1.02;0.98;;;7.80;81.30;;;;;;5017094;28;20022;-84
2020/12/05 12:12:58;;;;;;;0.57;0.57;;;7.80;81.30;;;;;;5016049;28;20050;-84
2020/12/05 12:15:24;;;;;;;1.05;0.73;;;7.80;81.20;;;;;;5016990;28;20029;-83
2020/12/05 12:17:49;;;;;;;0.70;0.70;;;7.90;81.30;;;;;;5017566;28;20054;-84
2020/12/05 12:20:15;;;;;;;0.77;0.77;;;7.80;81.20;;;;;;5017872;28;20057;-84
2020/12/05 12:22:44;;;;;;;0.52;0.52;;;7.80;81.30;;;;;;5015631;28;20045;-84
2020/12/05 12:25:09;;;;;;;0.70;0.70;;;7.80;81.40;;;;;;5015710;28;20073;-84
2020/12/05 12:27:35;;;;;;;0.90;0.82;;;7.80;81.40;;;;;;5016240;28;20042;-85
2020/12/05 12:30:00;;;;;;;1.25;1.15;;;7.80;81.40;;;;;;5016538;28;20030;-85
2020/12/05 12:32:26;;;;;;;0.55;0.55;;;7.70;81.40;;;;;;5019713;28;20045;-83
2020/12/05 12:34:52;;;;;;;0.70;0.70;;;7.60;81.50;;;;;;5022884;28;20038;-82
2020/12/05 12:37:20;;;;;;;0.90;0.82;;;7.60;81.60;;;;;;5018869;28;20041;-84
2020/12/05 12:39:46;;;;;;;0.82;0.70;;;7.50;81.60;;;;;;5016355;28;20038;-84
2020/12/05 12:42:14;;;;;;;0.70;0.70;;;7.50;81.80;;;;;;5016302;28;20038;-84
2020/12/05 12:44:40;;;;;;;0.88;0.88;;;7.40;81.70;;;;;;5015861;28;20034;-84
2020/12/05 12:49:37;;;;;;;0.60;0.60;;;7.50;81.50;;;;;;5018090;28;20030;-84
2020/12/05 12:52:06;;;;;;;1.10;0.90;;;7.50;81.40;;;;;;5016808;28;20080;-84
2020/12/05 12:54:32;;;;;;;0.80;0.80;;;7.60;81.20;;;;;;5015089;28;20045;-85
2020/12/05 12:56:59;;;;;;;0.70;0.70;;;7.60;81.00;;;;;;5015691;28;20041;-85
2020/12/05 12:59:25;;;;;;;0.80;0.80;;;7.80;80.80;;;;;;5016050;28;20018;-83
2020/12/05 13:01:52;;;;;;;0.82;0.80;;;7.80;80.40;;;;;;4999101;28;20037;-83
2020/12/05 13:04:18;;;;;;;0.52;0.52;;;7.90;80.40;;;;;;4999035;28;20050;-84
2020/12/05 13:06:44;;;;;;;0.70;0.70;;;8.00;80.20;;;;;;5017764;28;20026;-84
2020/12/05 13:09:09;;;;;;;0.45;0.45;;;8.00;80.10;;;;;;5021794;28;20058;-85
2020/12/05 13:11:35;;;;;;;0.80;0.80;;;8.00;80.00;;;;;;5027350;28;20040;-84
2020/12/05 13:14:00;;;;;;;1.42;0.98;;;8.00;80.00;;;;;;5030620;28;20170;-84